Time;durP1;ratioP1;P1;durP2;ratioP2;P2;SDS_P1;SDS_P2;PMS_P1;PMS_P2;Temp;Humidity;BMP_temperature;BMP_pressure;BME280_temperature;BME280_humidity;BME280_pressure;Samples;Min_cycle;Max_cycle;Signal;HPM_P1;HPM_P2
2023/03/25 00:00:43;;;;;;;8.10;5.80;;;;;;;9.07;79.60;98718.33;220600;1256;140060;-68
2023/03/25 00:05:56;;;;;;;13.90;6.30;;;;;;;9.01;79.68;98713.59;220654;1256;139770;-69
2023/03/25 00:11:03;;;;;;;10.40;6.80;;;;;;;8.99;79.86;98714.63;218358;1256;140997;-68
2023/03/25 00:16:09;;;;;;;15.40;8.30;;;;;;;9.00;80.22;98715.55;217646;1259;139927;-68
2023/03/25 00:21:13;;;;;;;8.10;5.20;;;;;;;9.01;80.13;98725.98;217778;1259;139807;-68
2023/03/25 00:26:19;;;;;;;12.80;7.90;;;;;;;8.95;80.27;98722.13;217716;1255;139301;-67
2023/03/25 00:31:24;;;;;;;9.20;6.70;;;;;;;8.87;80.32;98716.46;217866;1258;139627;-67
2023/03/25 00:36:29;;;;;;;11.40;5.70;;;;;;;8.83;80.54;98705.46;218835;1256;140136;-68
2023/03/25 00:41:35;;;;;;;7.90;6.80;;;;;;;8.80;80.54;98699.70;217752;1256;139951;-68
2023/03/25 00:46:41;;;;;;;12.60;7.10;;;;;;;8.76;80.42;98697.15;217642;1256;139773;-68
2023/03/25 00:51:46;;;;;;;8.50;6.60;;;;;;;8.72;80.79;98694.02;217955;1256;140546;-67
2023/03/25 00:56:56;;;;;;;9.80;7.10;;;;;;;8.70;80.52;98699.15;217769;1258;139551;-67
2023/03/25 01:02:02;;;;;;;9.50;6.30;;;;;;;8.66;80.87;98697.45;217824;1257;140241;-68
2023/03/25 01:07:09;;;;;;;11.20;6.80;;;;;;;8.62;80.82;98689.33;218520;1257;140443;-68
2023/03/25 01:12:17;;;;;;;6.50;5.90;;;;;;;8.56;80.59;98694.40;217905;1257;140110;-67
2023/03/25 01:17:22;;;;;;;8.80;7.30;;;;;;;8.49;80.74;98699.74;218710;1257;139458;-68
2023/03/25 01:22:27;;;;;;;11.30;7.70;;;;;;;8.41;80.97;98700.33;218347;1257;141053;-69
2023/03/25 01:27:31;;;;;;;9.40;5.80;;;;;;;8.36;80.79;98705.89;219033;1257;139907;-68
2023/03/25 01:32:36;;;;;;;9.90;6.20;;;;;;;8.31;80.97;98699.38;218313;1257;139648;-69
2023/03/25 01:37:43;;;;;;;16.50;7.70;;;;;;;8.24;81.33;98694.44;218648;1257;140564;-68
2023/03/25 01:42:49;;;;;;;;;;;;;;;8.19;80.98;98691.50;217903;1256;140017;-68
2023/03/25 01:48:09;;;;;;;15.20;6.60;;;;;;;8.12;81.44;98679.09;219650;1256;126057;-68
2023/03/25 01:53:15;;;;;;;10.60;6.10;;;;;;;8.10;81.36;98680.54;220608;1257;140039;-68
2023/03/25 01:58:23;;;;;;;9.00;6.10;;;;;;;8.05;81.33;98680.52;220515;1257;140248;-69
2023/03/25 02:03:29;;;;;;;8.30;5.80;;;;;;;7.97;80.98;98689.06;218959;1256;140406;-68
2023/03/25 02:08:38;;;;;;;9.90;6.20;;;;;;;7.85;81.01;98689.46;220465;1256;140353;-69
2023/03/25 02:13:43;;;;;;;12.10;6.30;;;;;;;7.81;81.45;98694.43;217868;1256;140162;-68
2023/03/25 02:18:46;;;;;;;7.70;5.60;;;;;;;7.79;81.67;98693.69;217752;1257;140371;-67
2023/03/25 02:24:12;;;;;;;9.30;6.10;;;;;;;7.73;81.65;98694.80;217827;1257;140434;-68
2023/03/25 02:30:00;;;;;;;6.70;5.20;;;;;;;7.65;81.18;98693.92;218556;1257;140070;-68
2023/03/25 02:35:07;;;;;;;8.30;5.30;;;;;;;7.49;80.98;98691.55;217764;1259;139632;-67
2023/03/25 02:40:47;;;;;;;7.00;5.40;;;;;;;7.32;81.43;98693.31;218693;1259;139630;-68
2023/03/25 02:45:55;;;;;;;8.90;5.90;;;;;;;7.13;81.51;98697.55;217783;1257;139822;-67
2023/03/25 02:51:09;;;;;;;9.70;5.40;;;;;;;7.01;81.56;98683.50;218347;1257;139981;-68
2023/03/25 02:56:21;;;;;;;15.10;7.20;;;;;;;6.97;81.45;98678.98;217986;1257;139549;-66
2023/03/25 03:01:27;;;;;;;19.20;11.10;;;;;;;6.89;81.58;98675.70;218847;1257;139782;-68
2023/03/25 03:06:39;;;;;;;14.50;6.90;;;;;;;6.83;81.78;98684.59;218313;1257;140108;-68
2023/03/25 03:12:28;;;;;;;5.90;5.30;;;;;;;6.72;81.49;98683.32;217756;1257;139669;-67
2023/03/25 03:18:06;;;;;;;8.90;6.30;;;;;;;6.53;81.56;98680.13;218405;1256;139685;-67
2023/03/25 03:23:22;;;;;;;11.60;6.90;;;;;;;6.50;82.22;98689.01;218979;1258;142620;-67
2023/03/25 03:28:53;;;;;;;6.80;5.00;;;;;;;6.42;81.81;98689.39;217825;1257;139599;-65
2023/03/25 03:34:04;;;;;;;7.30;4.70;;;;;;;6.32;81.86;98691.84;218698;1257;139959;-67
2023/03/25 03:39:18;;;;;;;7.80;5.70;;;;;;;6.25;81.73;98689.48;219192;1255;140543;-67
2023/03/25 03:44:32;;;;;;;8.60;5.40;;;;;;;6.19;82.08;98689.67;218736;1257;140516;-67
2023/03/25 03:49:50;;;;;;;8.30;6.00;;;;;;;6.13;82.55;98693.25;218184;1257;139586;-67
2023/03/25 03:54:59;;;;;;;8.20;5.50;;;;;;;6.13;83.08;98695.48;219007;1257;139882;-66
2023/03/25 04:00:30;;;;;;;8.70;6.10;;;;;;;6.12;82.64;98694.34;220202;1256;139166;-66
2023/03/25 04:05:37;;;;;;;12.00;8.20;;;;;;;6.10;82.87;98693.31;220550;1257;139967;-67
2023/03/25 04:10:57;;;;;;;8.30;6.60;;;;;;;6.14;82.99;98691.31;218808;1258;140715;-67
2023/03/25 04:16:06;;;;;;;11.20;8.50;;;;;;;6.22;82.95;98696.90;219172;1256;139752;-66
2023/03/25 04:21:14;;;;;;;12.30;8.80;;;;;;;6.26;83.38;98704.45;218811;1255;140668;-66
2023/03/25 04:26:20;;;;;;;10.00;6.70;;;;;;;6.28;83.16;98702.59;219090;1256;139365;-66
2023/03/25 04:31:29;;;;;;;8.40;7.40;;;;;;;6.27;83.42;98706.11;218648;1259;141169;-66
2023/03/25 04:36:40;;;;;;;10.10;7.50;;;;;;;6.29;83.54;98703.26;217763;1256;139801;-67
2023/03/25 04:41:52;;;;;;;9.40;7.00;;;;;;;6.32;83.87;98698.81;217741;1257;139602;-66
2023/03/25 04:47:00;;;;;;;7.40;5.90;;;;;;;6.34;83.85;98703.73;218269;1259;139382;-66
2023/03/25 04:52:08;;;;;;;8.40;6.30;;;;;;;6.35;84.41;98715.61;218693;1257;139442;-66
2023/03/25 04:57:14;;;;;;;6.90;6.10;;;;;;;6.41;84.71;98722.94;218348;1256;141300;-67
2023/03/25 05:02:19;;;;;;;13.40;7.30;;;;;;;6.47;84.72;98720.50;218275;1257;222771;-66
2023/03/25 05:07:24;;;;;;;12.60;8.20;;;;;;;6.52;84.60;98712.30;218264;1257;140267;-67
2023/03/25 05:12:29;;;;;;;13.70;8.20;;;;;;;6.57;84.71;98709.39;218047;1257;139967;-67
2023/03/25 05:17:34;;;;;;;10.40;6.80;;;;;;;6.69;84.91;98702.00;218493;1257;141625;-66
2023/03/25 05:22:40;;;;;;;10.10;8.00;;;;;;;6.80;84.83;98695.33;218904;1257;140898;-68
2023/03/25 05:27:45;;;;;;;11.30;7.70;;;;;;;6.93;84.83;98707.58;217806;1257;140454;-68
2023/03/25 05:32:52;;;;;;;11.60;9.50;;;;;;;7.13;84.75;98715.30;218003;1258;140052;-67
2023/03/25 05:37:59;;;;;;;11.20;8.30;;;;;;;7.32;84.94;98711.10;217999;1257;140921;-68
2023/03/25 05:43:02;;;;;;;10.50;6.00;;;;;;;7.50;84.85;98716.75;219028;1259;140447;-68
2023/03/25 05:48:07;;;;;;;13.70;7.50;;;;;;;7.75;84.62;98721.46;217597;1257;140433;-67
2023/03/25 05:53:14;;;;;;;9.70;7.10;;;;;;;8.03;84.81;98718.50;220173;1257;139946;-67
2023/03/25 05:58:18;;;;;;;13.20;6.70;;;;;;;8.22;84.88;98714.54;220401;1257;140555;-68
2023/03/25 06:03:24;;;;;;;10.90;8.50;;;;;;;8.30;84.35;98714.00;220675;1257;140036;-68
2023/03/25 06:08:30;;;;;;;8.70;7.10;;;;;;;8.36;84.35;98711.52;219563;1257;140023;-67
2023/03/25 06:13:37;;;;;;;13.80;6.90;;;;;;;8.49;84.37;98717.80;218229;1255;139756;-67
2023/03/25 06:18:40;;;;;;;11.40;7.50;;;;;;;8.61;84.33;98717.14;219281;1255;140911;-68
2023/03/25 06:23:49;;;;;;;9.10;6.00;;;;;;;8.69;84.06;98720.44;218617;1256;140191;-67
2023/03/25 06:28:54;;;;;;;13.00;6.40;;;;;;;8.73;83.87;98719.85;219426;1256;139656;-69
2023/03/25 06:33:57;;;;;;;9.30;6.90;;;;;;;8.79;83.76;98718.49;218026;1257;140391;-67
2023/03/25 06:39:04;;;;;;;9.20;7.20;;;;;;;8.85;83.70;98719.26;218661;1259;140658;-66
2023/03/25 06:44:08;;;;;;;12.30;9.00;;;;;;;8.93;83.78;98719.39;217686;1259;141841;-68
2023/03/25 06:49:12;;;;;;;9.00;6.10;;;;;;;8.94;83.58;98724.66;217390;1259;140501;-68
2023/03/25 06:54:17;;;;;;;6.70;5.00;;;;;;;8.97;83.51;98726.46;217027;1259;783748;-66
2023/03/25 06:59:21;;;;;;;8.30;5.20;;;;;;;9.05;83.53;98722.35;218855;1256;139819;-69
2023/03/25 07:04:25;;;;;;;6.70;4.50;;;;;;;9.14;83.51;98724.36;217955;1257;140392;-66
2023/03/25 07:09:30;;;;;;;6.60;4.20;;;;;;;9.32;83.50;98726.36;217789;1257;139699;-69
2023/03/25 07:14:35;;;;;;;5.60;4.60;;;;;;;9.63;83.32;98722.06;218256;1257;141131;-71
2023/03/25 07:19:38;;;;;;;4.90;3.60;;;;;;;10.11;83.27;98726.22;217769;1256;141652;-68
2023/03/25 07:24:42;;;;;;;12.90;5.40;;;;;;;10.89;82.88;98730.64;217970;1257;140249;-68
2023/03/25 07:29:45;;;;;;;9.10;3.70;;;;;;;11.62;82.34;98721.96;217854;1260;141878;-67
2023/03/25 07:34:49;;;;;;;5.00;3.70;;;;;;;12.45;81.86;98719.55;218731;1256;140664;-67
2023/03/25 07:39:53;;;;;;;4.30;3.50;;;;;;;13.55;81.37;98717.09;218079;1259;140671;-67
2023/03/25 07:44:56;;;;;;;3.30;2.90;;;;;;;14.28;79.60;98716.52;220563;1257;139471;-68
2023/03/25 07:50:00;;;;;;;3.50;2.90;;;;;;;14.74;77.91;98716.16;219233;1259;140045;-66
2023/03/25 07:55:04;;;;;;;6.70;2.90;;;;;;;14.79;76.17;98714.64;220420;1257;141553;-69
2023/03/25 08:00:09;;;;;;;2.20;2.00;;;;;;;15.04;76.17;98718.73;220464;1259;139742;-69
2023/03/25 08:05:19;;;;;;;6.40;3.20;;;;;;;15.73;75.78;98711.89;220423;1256;140952;-69
2023/03/25 08:10:23;;;;;;;3.50;2.30;;;;;;;16.01;73.68;98711.33;219648;1259;141044;-67
2023/03/25 08:15:28;;;;;;;2.70;1.90;;;;;;;15.56;71.24;98724.52;218602;1260;141354;-69
2023/03/25 08:20:35;;;;;;;3.70;3.40;;;;;;;15.19;70.88;98715.31;217781;1259;139758;-69
2023/03/25 08:25:42;;;;;;;4.20;2.90;;;;;;;15.21;71.21;98712.39;217580;1254;139794;-70
2023/03/25 08:30:48;;;;;;;6.50;4.00;;;;;;;15.47;70.97;98708.36;217812;1255;139724;-67
2023/03/25 08:35:56;;;;;;;6.20;2.40;;;;;;;15.51;70.17;98700.84;217499;1259;140400;-69
2023/03/25 08:41:00;;;;;;;8.60;3.50;;;;;;;15.69;69.52;98695.69;217502;1256;139399;-68
2023/03/25 08:46:05;;;;;;;6.40;3.00;;;;;;;15.58;68.86;98696.30;218065;1257;140549;-67
2023/03/25 08:51:09;;;;;;;4.50;3.70;;;;;;;15.38;68.45;98697.54;217669;1260;140546;-67
2023/03/25 08:56:13;;;;;;;3.10;2.80;;;;;;;15.01;67.97;98695.42;217679;1260;140193;-65
2023/03/25 09:01:16;;;;;;;3.50;2.80;;;;;;;14.82;68.23;98693.41;218302;1257;139363;-67
2023/03/25 09:06:20;;;;;;;7.70;3.60;;;;;;;14.72;68.20;98699.27;217875;1256;140215;-66
2023/03/25 09:11:25;;;;;;;4.80;2.50;;;;;;;14.68;68.32;98693.48;218420;1260;139818;-67
2023/03/25 09:16:41;;;;;;;7.00;2.50;;;;;;;14.70;68.28;98694.63;217892;1260;139604;-67
2023/03/25 09:21:44;;;;;;;5.30;2.60;;;;;;;14.55;67.42;98692.58;218407;1257;139833;-68
2023/03/25 09:26:49;;;;;;;3.90;2.70;;;;;;;14.24;67.21;98692.23;217899;1257;140216;-66
2023/03/25 09:31:53;;;;;;;3.90;2.70;;;;;;;14.02;67.66;98703.58;218527;1260;141137;-68
2023/03/25 09:36:58;;;;;;;3.40;2.50;;;;;;;13.82;67.18;98704.19;217673;1257;140366;-67
2023/03/25 09:42:08;;;;;;;5.20;2.50;;;;;;;13.67;67.53;98704.64;217622;1259;139807;-69
2023/03/25 09:47:14;;;;;;;7.90;2.50;;;;;;;13.65;67.64;98704.77;219294;1256;141574;-67
2023/03/25 09:52:39;;;;;;;4.40;2.50;;;;;;;13.68;67.67;98704.85;220369;1255;140492;-68
2023/03/25 09:57:49;;;;;;;3.60;2.30;;;;;;;13.75;67.57;98700.72;219215;1256;141248;-67
2023/03/25 10:03:25;;;;;;;3.20;1.60;;;;;;;13.78;67.43;98700.46;218532;1257;141650;-69
2023/03/25 10:08:39;;;;;;;4.00;2.30;;;;;;;13.75;67.05;98697.44;218991;1258;139471;-68
2023/03/25 10:13:50;;;;;;;3.70;2.50;;;;;;;13.68;66.87;98689.63;217912;1257;139842;-68
2023/03/25 10:18:58;;;;;;;3.30;2.70;;;;;;;13.60;66.86;98683.27;217685;1257;139127;-68
2023/03/25 10:24:06;;;;;;;3.00;2.60;;;;;;;13.57;66.93;98678.41;218498;1257;140138;-68
2023/03/25 10:29:40;;;;;;;2.90;2.30;;;;;;;13.58;66.79;98678.08;217668;1257;140757;-67
2023/03/25 10:34:54;;;;;;;5.60;3.10;;;;;;;13.52;66.81;98678.17;217740;1259;141347;-67
2023/03/25 10:40:15;;;;;;;8.90;2.80;;;;;;;13.30;66.60;98681.98;217554;1260;139594;-68
2023/03/25 10:45:23;;;;;;;3.10;2.10;;;;;;;12.91;66.60;98682.77;218310;1259;139821;-69
2023/03/25 10:50:27;;;;;;;;;;;;;;;12.72;67.52;98683.98;217715;1256;139293;-68
2023/03/25 10:55:34;;;;;;;3.60;3.00;;;;;;;12.83;68.82;98680.45;218241;1257;126416;-67
2023/03/25 11:00:39;;;;;;;8.50;3.50;;;;;;;13.41;68.84;98673.82;218615;1257;141278;-66
2023/03/25 11:05:44;;;;;;;5.60;3.30;;;;;;;13.96;68.47;98666.18;217814;1259;139794;-68
2023/03/25 11:10:55;;;;;;;2.50;2.30;;;;;;;14.27;68.18;98667.16;218441;1257;140604;-70
2023/03/25 11:16:02;;;;;;;5.30;3.60;;;;;;;14.51;68.02;98664.92;217983;1257;139814;-68
2023/03/25 11:21:16;;;;;;;4.80;3.20;;;;;;;14.62;67.35;98661.80;219426;1257;140967;-67
2023/03/25 11:26:35;;;;;;;3.20;2.70;;;;;;;14.67;67.39;98650.46;218366;1258;140537;-67
2023/03/25 11:31:41;;;;;;;4.00;3.40;;;;;;;14.82;67.20;98632.67;217680;1257;139388;-67
2023/03/25 11:37:00;;;;;;;8.80;3.00;;;;;;;15.17;66.69;98622.99;219086;1257;140078;-68
2023/03/25 11:42:33;;;;;;;3.20;2.90;;;;;;;15.39;66.54;98607.14;217727;1260;139747;-67
2023/03/25 11:47:39;;;;;;;5.00;2.70;;;;;;;15.39;65.46;98605.20;220493;1256;140591;-68
2023/03/25 11:52:45;;;;;;;2.60;2.10;;;;;;;15.51;65.33;98602.02;220562;1256;139689;-67
2023/03/25 11:57:53;;;;;;;3.60;3.00;;;;;;;15.66;64.48;98601.86;220484;1257;139501;-67
2023/03/25 12:03:21;;;;;;;7.90;3.70;;;;;;;15.61;64.16;98594.81;218465;1256;139065;-66
2023/03/25 12:08:30;;;;;;;3.90;2.40;;;;;;;15.89;64.29;98588.04;218459;1256;142981;-68
2023/03/25 12:14:05;;;;;;;3.40;2.50;;;;;;;16.19;63.80;98585.20;217646;1257;140157;-67
2023/03/25 12:19:24;;;;;;;18.10;3.00;;;;;;;16.17;63.30;98582.39;218421;1257;151231;-68
2023/03/25 12:24:49;;;;;;;2.60;2.40;;;;;;;15.88;62.46;98576.42;218117;1259;139955;-69
2023/03/25 12:30:20;;;;;;;2.90;2.60;;;;;;;15.59;62.14;98567.28;217792;1260;138935;-67
2023/03/25 12:35:43;;;;;;;4.50;3.40;;;;;;;15.42;62.07;98559.17;217787;1257;139195;-67
2023/03/25 12:40:47;;;;;;;6.10;3.00;;;;;;;15.17;61.60;98556.80;218240;1257;138942;-69
2023/03/25 12:46:15;;;;;;;2.60;0.70;;;;;;;14.59;61.39;98632.83;217785;1257;140066;-69
2023/03/25 12:51:46;;;;;;;2.50;1.20;;;;;;;12.92;60.80;98641.02;217865;1257;140126;-68
2023/03/25 12:57:01;;;;;;;2.00;1.20;;;;;;;11.81;62.85;98617.80;217687;1257;140158;-65
2023/03/25 13:02:23;;;;;;;2.10;1.60;;;;;;;11.19;64.73;98613.65;217443;1259;139728;-68
2023/03/25 13:07:37;;;;;;;2.00;1.50;;;;;;;10.89;66.08;98635.54;217498;1256;140643;-69
2023/03/25 13:12:44;;;;;;;3.10;1.20;;;;;;;10.78;67.51;98648.29;217554;1259;140115;-67
2023/03/25 13:17:53;;;;;;;0.80;0.80;;;;;;;10.70;68.38;98649.08;217647;1255;140143;-66
2023/03/25 13:23:02;;;;;;;3.60;1.10;;;;;;;10.65;69.23;98641.50;217532;1256;141715;-66
2023/03/25 13:28:12;;;;;;;2.40;1.30;;;;;;;10.70;70.09;98628.55;217733;1255;141240;-66
2023/03/25 13:33:23;;;;;;;0.90;0.90;;;;;;;11.03;71.21;98609.42;218782;1257;141592;-66
2023/03/25 13:38:42;;;;;;;5.90;1.80;;;;;;;11.62;71.54;98589.41;218100;1257;140007;-68
2023/03/25 13:43:57;;;;;;;1.40;1.10;;;;;;;12.14;71.92;98575.54;219318;1256;139426;-67
2023/03/25 13:49:07;;;;;;;2.00;1.60;;;;;;;12.48;71.41;98563.37;218640;1256;139790;-67
2023/03/25 13:54:43;;;;;;;2.20;1.50;;;;;;;12.54;70.98;98561.35;217765;1256;140347;-68
2023/03/25 14:00:32;;;;;;;9.70;1.90;;;;;;;12.68;71.29;98550.36;220072;1256;140672;-69
2023/03/25 14:06:03;;;;;;;3.80;2.10;;;;;;;12.91;70.90;98549.83;219400;1256;140695;-69
2023/03/25 14:11:16;;;;;;;3.20;1.90;;;;;;;13.00;70.85;98550.09;217433;1257;140342;-70
2023/03/25 14:16:25;;;;;;;2.10;1.80;;;;;;;12.97;71.06;98535.67;217911;1259;140901;-68
2023/03/25 14:21:41;;;;;;;1.60;1.50;;;;;;;12.94;70.89;98533.02;217755;1255;140556;-69
2023/03/25 14:26:54;;;;;;;2.40;2.20;;;;;;;12.88;70.52;98537.23;217635;1257;140355;-69
2023/03/25 14:32:02;;;;;;;2.30;2.10;;;;;;;12.79;70.58;98536.08;217636;1257;140205;-68
2023/03/25 14:37:06;;;;;;;4.70;3.00;;;;;;;12.78;70.90;98542.50;217537;1257;139815;-69
2023/03/25 14:42:23;;;;;;;4.00;2.10;;;;;;;12.83;71.36;98547.85;217682;1259;140576;-68
2023/03/25 14:47:30;;;;;;;1.80;1.70;;;;;;;12.85;71.34;98544.14;217527;1256;142200;-68
2023/03/25 14:52:48;;;;;;;5.50;2.60;;;;;;;12.82;71.22;98542.30;217430;1256;140686;-67
2023/03/25 14:57:58;;;;;;;2.90;2.50;;;;;;;12.80;71.14;98540.40;218429;1256;141468;-68
2023/03/25 15:03:09;;;;;;;2.40;2.20;;;;;;;12.76;71.29;98536.04;218562;1256;140497;-68
2023/03/25 15:08:16;;;;;;;3.40;2.70;;;;;;;12.73;71.54;98534.61;218021;1257;140741;-68
2023/03/25 15:13:41;;;;;;;3.60;3.30;;;;;;;12.67;71.55;98544.06;217682;1259;141039;-67
2023/03/25 15:18:48;;;;;;;3.10;2.80;;;;;;;12.61;71.88;98564.46;217664;1259;140838;-70
2023/03/25 15:24:05;;;;;;;;;;;;;;;12.33;71.00;98599.88;217673;1259;141980;-68
2023/03/25 15:29:27;;;;;;;0.60;0.60;;;;;;;11.45;69.44;98585.16;217868;1258;128526;-66
2023/03/25 15:34:44;;;;;;;0.50;0.50;;;;;;;10.84;69.90;98553.95;217481;1259;141368;-69
2023/03/25 15:39:51;;;;;;;3.10;0.70;;;;;;;10.63;70.70;98559.30;217452;1257;140473;-68
2023/03/25 15:45:10;;;;;;;1.10;0.80;;;;;;;10.51;71.02;98553.14;218907;1258;140645;-67
2023/03/25 15:50:51;;;;;;;2.70;2.20;;;;;;;10.47;71.71;98553.66;220571;1256;141139;-66
2023/03/25 15:56:10;;;;;;;0.90;0.90;;;;;;;10.42;72.21;98550.98;220293;1256;140496;-68
2023/03/25 16:01:33;;;;;;;1.20;0.90;;;;;;;10.43;72.92;98547.73;217667;1257;143792;-67
2023/03/25 16:06:42;;;;;;;27.20;13.80;;;;;;;10.45;73.38;98546.45;217928;1256;139777;-67
2023/03/25 16:11:47;;;;;;;49.50;26.90;;;;;;;10.45;73.74;98550.77;217792;1257;140457;-66
2023/03/25 16:16:53;;;;;;;40.40;29.70;;;;;;;10.48;74.10;98552.16;219139;1256;142116;-71
2023/03/25 16:22:02;;;;;;;4.80;3.70;;;;;;;10.47;74.29;98560.47;217501;1257;141016;-68
2023/03/25 16:27:23;;;;;;;3.00;2.80;;;;;;;10.42;74.13;98568.14;217522;1258;139955;-69
2023/03/25 16:32:33;;;;;;;2.30;1.70;;;;;;;10.29;74.18;98569.43;217898;1256;141739;-70
2023/03/25 16:37:39;;;;;;;3.70;2.70;;;;;;;10.11;74.11;98577.48;218370;1259;140541;-70
2023/03/25 16:42:42;;;;;;;5.10;3.40;;;;;;;9.90;73.94;98583.91;217398;1257;141492;-69
2023/03/25 16:47:48;;;;;;;2.60;1.70;;;;;;;9.79;74.21;98592.27;217405;1259;140710;-65
2023/03/25 16:52:52;;;;;;;2.60;1.60;;;;;;;9.67;74.13;98594.91;218513;1257;139903;-66
2023/03/25 16:58:01;;;;;;;2.00;1.40;;;;;;;9.54;74.12;98595.66;218054;1257;139659;-66
2023/03/25 17:03:13;;;;;;;2.20;1.40;;;;;;;9.39;74.12;98600.79;218379;1257;140444;-68
2023/03/25 17:08:21;;;;;;;1.20;1.10;;;;;;;9.29;74.23;98603.62;217397;1257;139874;-67
2023/03/25 17:13:49;;;;;;;2.80;1.50;;;;;;;9.19;74.41;98606.63;217610;1260;139928;-67
2023/03/25 17:18:55;;;;;;;1.80;1.70;;;;;;;9.07;74.39;98607.33;217731;1257;140436;-69
2023/03/25 17:24:20;;;;;;;1.50;1.00;;;;;;;8.98;74.75;98608.25;217942;1257;139767;-69
2023/03/25 17:29:25;;;;;;;4.30;1.60;;;;;;;8.88;74.71;98611.92;218177;1259;140720;-68
2023/03/25 17:34:36;;;;;;;3.40;2.10;;;;;;;8.73;74.65;98604.33;217316;1256;139816;-68
2023/03/25 17:39:47;;;;;;;10.40;2.30;;;;;;;8.56;74.94;98617.38;219323;1256;140839;-67
2023/03/25 17:44:54;;;;;;;2.60;2.30;;;;;;;8.43;75.34;98623.50;220192;1256;142908;-67
2023/03/25 17:50:13;;;;;;;2.90;2.20;;;;;;;8.32;75.03;98625.62;220085;1256;140462;-70
2023/03/25 17:55:20;;;;;;;3.70;2.60;;;;;;;8.28;75.51;98626.94;219452;1257;140340;-73
2023/03/25 18:00:27;;;;;;;2.00;1.50;;;;;;;8.26;75.51;98629.25;218551;1256;139307;-65
2023/03/25 18:05:33;;;;;;;7.70;2.30;;;;;;;8.22;75.48;98629.06;217385;1257;140027;-69
2023/03/25 18:10:41;;;;;;;2.60;1.90;;;;;;;8.14;75.40;98630.27;219144;1256;139714;-76
2023/03/25 18:15:47;;;;;;;4.10;2.10;;;;;;;8.04;75.76;98632.84;217312;1260;139880;-73
2023/03/25 18:21:03;;;;;;;3.00;2.80;;;;;;;7.98;75.99;98634.56;217567;1257;139466;-69
2023/03/25 18:26:13;;;;;;;4.30;2.20;;;;;;;7.90;76.21;98637.49;217687;1256;140473;-67
2023/03/25 18:31:22;;;;;;;6.00;2.50;;;;;;;7.78;76.03;98639.32;217377;1257;139907;-68
2023/03/25 18:36:27;;;;;;;3.40;2.70;;;;;;;7.66;76.16;98639.83;218397;1257;140314;-68
2023/03/25 18:41:33;;;;;;;4.20;2.00;;;;;;;7.57;76.44;98639.33;217526;1259;140687;-66
2023/03/25 18:46:39;;;;;;;3.00;2.70;;;;;;;7.44;76.26;98638.90;217788;1257;139703;-68
2023/03/25 18:51:49;;;;;;;7.50;4.50;;;;;;;7.31;76.95;98641.30;218151;1256;140449;-68
2023/03/25 19:23:26;;;;;;;7.10;4.90;;;;;;;6.89;77.38;98634.42;215350;1296;635946;-68
2023/03/25 19:28:31;;;;;;;6.80;3.90;;;;;;;6.80;77.52;98630.74;217232;1267;138967;-66
2023/03/25 19:33:38;;;;;;;6.80;4.20;;;;;;;6.74;77.60;98625.45;217005;1268;882003;-68
2023/03/25 19:38:45;;;;;;;6.00;4.60;;;;;;;6.73;78.10;98621.52;218550;1266;139360;-67
2023/03/25 19:43:50;;;;;;;9.50;3.90;;;;;;;6.74;77.83;98616.92;220490;1254;138964;-68
2023/03/25 19:48:55;;;;;;;9.60;3.80;;;;;;;6.76;77.93;98618.27;220703;1253;139020;-66
2023/03/25 19:54:01;;;;;;;8.10;4.90;;;;;;;6.79;77.79;98617.71;220873;1253;139734;-68
2023/03/25 19:59:06;;;;;;;3.90;2.70;;;;;;;6.81;77.78;98620.65;221116;1253;138948;-68
2023/03/25 20:04:13;;;;;;;4.60;2.90;;;;;;;6.82;77.59;98622.73;220127;1254;139904;-66
2023/03/25 20:09:20;;;;;;;4.30;3.20;;;;;;;6.82;77.74;98629.58;219302;1254;138927;-67
2023/03/25 20:14:26;;;;;;;6.60;3.20;;;;;;;6.81;77.66;98627.38;219471;1253;139308;-67
2023/03/25 20:19:32;;;;;;;5.30;2.60;;;;;;;6.80;77.72;98631.19;218877;1253;139047;-66
2023/03/25 20:24:39;;;;;;;5.50;3.80;;;;;;;6.76;78.00;98636.24;218849;1256;139102;-67
2023/03/25 20:29:47;;;;;;;4.20;2.60;;;;;;;6.70;77.37;98630.80;218134;1254;138900;-67
2023/03/25 20:34:53;;;;;;;6.30;3.30;;;;;;;6.65;77.70;98634.09;218840;1256;139167;-68
2023/03/25 20:39:59;;;;;;;5.60;2.60;;;;;;;6.62;77.69;98633.77;218063;1259;138887;-66
2023/03/25 20:45:06;;;;;;;7.00;3.40;;;;;;;6.63;78.12;98627.16;218636;1259;139084;-66
2023/03/25 20:50:15;;;;;;;4.10;2.80;;;;;;;6.58;78.11;98619.70;218211;1257;139501;-66
2023/03/25 20:55:22;;;;;;;8.50;3.40;;;;;;;6.52;77.98;98626.16;217820;1257;139400;-67
2023/03/25 21:00:27;;;;;;;4.30;3.50;;;;;;;6.49;77.85;98620.88;217665;1260;139409;-68
2023/03/25 21:05:32;;;;;;;4.90;3.00;;;;;;;6.43;77.69;98623.00;217890;1257;139439;-67
2023/03/25 21:10:46;;;;;;;5.00;2.70;;;;;;;6.37;77.99;98626.84;218311;1254;139409;-69
2023/03/25 21:15:53;;;;;;;6.30;2.90;;;;;;;6.36;77.78;98635.17;218000;1258;140406;-67
2023/03/25 21:21:00;;;;;;;6.30;2.30;;;;;;;6.38;78.36;98634.44;220330;1254;138443;-67
2023/03/25 21:26:08;;;;;;;3.80;3.20;;;;;;;6.42;78.44;98630.67;219008;1257;138760;-65
2023/03/25 21:31:20;;;;;;;7.10;4.10;;;;;;;6.45;78.57;98633.09;218643;1256;139107;-66
2023/03/25 21:36:28;;;;;;;5.00;3.40;;;;;;;6.45;78.20;98634.27;218428;1254;139272;-67
2023/03/25 21:41:34;;;;;;;6.90;3.70;;;;;;;6.48;78.36;98632.69;219086;1254;138742;-67
2023/03/25 21:46:41;;;;;;;4.40;3.20;;;;;;;6.48;78.47;98637.73;220658;1256;139288;-66
2023/03/25 21:51:55;;;;;;;5.40;2.70;;;;;;;6.48;78.21;98633.42;220718;1254;139817;-66
2023/03/25 21:57:03;;;;;;;5.00;3.60;;;;;;;6.51;77.61;98632.22;220167;1256;139171;-66
2023/03/25 22:02:13;;;;;;;7.30;3.30;;;;;;;6.53;78.23;98626.87;220077;1255;139873;-66
2023/03/25 22:07:17;;;;;;;6.10;3.00;;;;;;;6.56;78.12;98630.94;220438;1254;139593;-65
2023/03/25 22:12:21;;;;;;;9.70;3.80;;;;;;;6.55;78.15;98623.25;219285;1254;140323;-67
2023/03/25 22:17:25;;;;;;;5.20;3.20;;;;;;;6.56;78.17;98623.05;219431;1254;139197;-66
2023/03/25 22:22:30;;;;;;;4.30;3.70;;;;;;;6.59;78.25;98621.63;218687;1255;139081;-66
2023/03/25 22:27:36;;;;;;;6.50;3.90;;;;;;;6.62;78.75;98619.52;219283;1255;139558;-67
2023/03/25 22:32:41;;;;;;;6.30;3.60;;;;;;;6.62;78.47;98624.40;218141;1254;139138;-67
2023/03/25 22:37:51;;;;;;;10.40;4.20;;;;;;;6.62;78.72;98621.60;219049;1256;139410;-67
2023/03/25 22:42:56;;;;;;;6.00;3.60;;;;;;;6.65;78.68;98615.23;218636;1254;139470;-66
2023/03/25 22:48:01;;;;;;;5.80;3.80;;;;;;;6.69;78.87;98617.80;218736;1257;139926;-66
2023/03/25 22:53:05;;;;;;;7.10;2.90;;;;;;;6.72;78.77;98618.27;218589;1254;139020;-66
2023/03/25 22:58:09;;;;;;;4.00;3.30;;;;;;;6.72;79.08;98619.18;218336;1254;141097;-67
2023/03/25 23:03:14;;;;;;;4.20;3.40;;;;;;;6.75;79.16;98622.55;219111;1257;140059;-65
2023/03/25 23:08:20;;;;;;;4.20;3.70;;;;;;;6.76;78.95;98621.77;218649;1254;139214;-66
2023/03/25 23:13:26;;;;;;;5.30;3.70;;;;;;;6.76;79.15;98628.24;218673;1254;139252;-65
2023/03/25 23:18:31;;;;;;;4.20;3.20;;;;;;;6.78;79.80;98633.48;218753;1254;138959;-66
2023/03/25 23:23:35;;;;;;;5.30;3.20;;;;;;;6.79;79.30;98634.02;218898;1254;140901;-67
2023/03/25 23:28:59;;;;;;;5.20;4.50;;;;;;;6.80;79.63;98633.77;219732;1254;139365;-66
2023/03/25 23:34:06;;;;;;;8.80;4.30;;;;;;;6.82;79.82;98631.59;218967;1254;139649;-66
2023/03/25 23:39:14;;;;;;;7.80;3.70;;;;;;;6.86;79.65;98633.05;220475;1254;139331;-66
2023/03/25 23:44:19;;;;;;;3.80;3.00;;;;;;;6.88;80.15;98625.35;220821;1254;151160;-67
2023/03/25 23:49:23;;;;;;;5.40;3.50;;;;;;;6.91;79.72;98621.10;220623;1254;140958;-67
2023/03/25 23:54:28;;;;;;;5.10;3.70;;;;;;;6.91;80.05;98622.55;220746;1254;139201;-67
2023/03/25 23:59:31;;;;;;;5.70;3.70;;;;;;;6.94;79.76;98615.40;220687;1254;139399;-67
